x

Ilm3 - 27 Miles Se Of Wrightsville Beach, Nc (41037) Weather Station

12:08 - Thu 17th Aug 2017 All times are EDT. -4 hours from GMT.

  • Wind
    2mph, 4mph gusts
  • Sea Temp 84°f
  • Aire Temp 83°f
  • Sea Pressure 1016.9mb
  • Ilm3 - 27 Miles Se Of Wrightsville Beach, Nc
  • Ilm3 - 27 Miles Se Of Wrightsville Beach, Nc

More Historic Weather Station data

Upgrade to MSW Pro to gain access to the past 30 days of data for over 8000 Wavebouys and Weather Stations around the globe.

Join

Comparision Forecast

View Surf forecast
   
jue 08/17 12:08 2 4 mph 1016.9mb 84f 83f
mié 08/16 11:08 2 7 mph 1017.2mb 84f 83f
10:08 4 9 mph 1017.1mb 84f 83f
9:08 7 9 mph 1016.3mb 84f 83f
8:08 7 9 mph 1015.5mb 85f 83f
7:08 7 9 mph 1015.2mb 85f 83f
6:08 2 4 mph 1015.1mb 85f 83f
5:08 4 7 mph 1015.2mb 84f 83f
4:08 4 9 mph 1015.4mb 84f 83f
3:08 4 9 mph 1015.5mb 84f 83f
2:08 4 9 mph 1016mb 84f 82f
1:08 7 11 mph 1015.8mb 83f 82f
12:08 7 11 mph 1016.1mb 83f 82f
11:08 9 16 mph 1015.8mb 83f 81f
10:08 9 16 mph 1015.6mb 83f 82f
9:08 9 13 mph 1015mb 83f 82f
8:08 9 11 mph 1014.7mb 83f 82f
7:08 4 9 mph 1014mb 83f 82f
6:08 2 4 mph 1013mb 83f 83f
5:08 2 4 mph 1012.5mb 83f 83f
4:08 9 11 mph 1012.3mb 83f 83f
3:08 7 11 mph 1012.3mb 83f 83f
2:08 7 11 mph 1012.4mb 83f 82f
1:08 11 16 mph 1012.5mb 83f 83f
12:08 13 18 mph 1012.4mb 83f 83f
mar 08/15 11:08 16 22 mph 1012.4mb 83f 83f
10:08 16 20 mph 1011.7mb 83f 83f
9:08 16 20 mph 1012mb 83f 83f
8:08 13 20 mph 1011.2mb 83f 83f
6:08 13 18 mph 1010.7mb 84f 84f
5:08 13 18 mph 1010.7mb 84f 84f
4:08 11 16 mph 1010.9mb 84f 84f
3:08 9 13 mph 1011.3mb 84f 84f
2:08 7 11 mph 1011.8mb 84f 84f
1:08 7 9 mph 1012.3mb 84f 84f
12:08 4 9 mph 1012.5mb 84f 84f
11:08 4 7 mph 1012.9mb 83f 84f
10:08 7 9 mph 1013mb 83f 83f
9:08 4 7 mph 1013mb 83f 83f
8:08 4 7 mph 1012.9mb 83f 83f
7:08 4 9 mph 1012.4mb 83f 82f
6:08 7 9 mph 1012mb 83f 82f
5:08 4 9 mph 1011.5mb 83f 82f
4:08 7 9 mph 1011.8mb 83f 82f
3:08 9 11 mph 1011.8mb 83f 82f
2:08 9 11 mph 1012.3mb 83f 82f
1:08 9 11 mph 1013mb 83f 83f
12:08 9 11 mph 1013.4mb 83f 83f
lun 08/14 11:08 9 11 mph 1013.8mb 83f 83f
10:08 7 11 mph 1013.5mb 83f 83f
9:08 9 13 mph 1013.3mb 83f 83f
6:08 11 13 mph 1012.7mb 83f 83f
5:08 9 13 mph 1013mb 83f 84f
4:08 9 11 mph 1013.3mb 83f 84f
3:08 9 11 mph 1013.9mb 84f 84f
2:08 7 9 mph 1014.3mb 84f 84f
1:08 4 9 mph 1014.6mb 83f 83f
11:08 4 7 mph 1015.3mb 83f 83f
10:08 4 9 mph 1015mb 82f 83f
8:08 7 9 mph 1015.1mb 82f 83f
7:08 7 9 mph 1014.6mb 82f 81f
6:08 7 11 mph 1014.3mb 82f 82f
5:08 7 11 mph 1013.8mb 82f 82f
4:08 7 9 mph 1013.9mb 82f 82f
3:08 4 9 mph 1014.5mb 82f 82f
2:08 7 9 mph 1014.5mb 82f 82f
1:08 9 13 mph 1014.8mb 82f 82f
12:08 11 13 mph 1015.4mb 82f 82f
dom 08/13 11:08 9 13 mph 1015.5mb 82f 82f
10:08 9 13 mph 1015.2mb 82f 82f
9:08 11 18 mph 1014.5mb 82f 82f
8:08 11 16 mph 1014.4mb 82f 82f
7:08 11 16 mph 1013.8mb 82f 82f
6:08 11 18 mph 1013.9mb 82f 82f
5:08 11 18 mph 1013.7mb 83f 83f
4:08 11 16 mph 1013.4mb 82f 83f
3:08 7 11 mph 1014mb 82f 83f
2:08 9 13 mph 1014.6mb 82f 82f
1:08 9 13 mph 1014.7mb 82f 83f
12:08 11 18 mph 1015mb 82f 82f
11:08 11 16 mph 1014.8mb 82f 83f
10:08 11 13 mph 1015mb 82f 82f
9:08 9 13 mph 1014.6mb 82f 83f
8:08 11 13 mph 1014.2mb 82f 82f
7:08 13 20 mph 1013.9mb 82f 82f
6:08 16 20 mph 1013.1mb 82f 82f